Time;durP1;ratioP1;P1;durP2;ratioP2;P2;SDS_P1;SDS_P2;PMS_P1;PMS_P2;Temp;Humidity;BMP_temperature;BMP_pressure;BME280_temperature;BME280_humidity;BME280_pressure;Samples;Min_cycle;Max_cycle;Signal;HPM_P1;HPM_P2
2023/02/05 00:01:18;;;;;;;5.38;3.20;;;;;;;-2.82;72.56;94854.63;5110278;28;20114;-73
2023/02/05 00:03:43;;;;;;;3.63;2.58;;;;;;;-2.71;72.30;94856.84;5127517;28;20425;-73
2023/02/05 00:06:10;;;;;;;4.95;3.22;;;;;;;-2.65;71.68;94853.28;5110530;28;20039;-73
2023/02/05 00:08:35;;;;;;;3.63;2.63;;;;;;;-2.76;72.05;94869.72;5110217;28;20433;-73
2023/02/05 00:11:08;;;;;;;3.10;2.10;;;;;;;-2.86;72.44;94850.53;5144514;27;20378;-74
2023/02/05 00:13:36;;;;;;;4.15;2.53;;;;;;;-2.84;72.61;94856.41;5110399;28;20070;-73
2023/02/05 00:16:13;;;;;;;3.08;2.13;;;;;;;-2.84;72.24;94851.34;5143743;27;20103;-73
2023/02/05 00:18:39;;;;;;;3.90;2.35;;;;;;;-3.01;73.30;94862.00;5127000;28;20043;-73
2023/02/05 00:21:05;;;;;;;3.72;2.60;;;;;;;-3.09;73.55;94860.53;5109894;28;20035;-73
2023/02/05 00:23:30;;;;;;;3.30;2.38;;;;;;;-3.07;73.90;94869.78;5144469;27;20446;-73
2023/02/05 00:25:56;;;;;;;4.15;2.92;;;;;;;-3.03;73.69;94876.47;5109986;28;20092;-73
2023/02/05 00:28:21;;;;;;;5.10;2.70;;;;;;;-3.29;72.99;94828.91;5144118;27;20020;-74
2023/02/05 00:30:47;;;;;;;4.88;2.35;;;;;;;-2.92;72.60;94876.16;5122505;28;20025;-73
2023/02/05 00:33:12;;;;;;;5.38;2.75;;;;;;;-2.98;72.57;94868.69;5089557;28;20093;-73
2023/02/05 00:35:37;;;;;;;3.53;2.53;;;;;;;-2.90;71.51;94876.91;5106507;28;20040;-74
2023/02/05 00:38:03;;;;;;;4.22;2.58;;;;;;;-2.99;71.48;94877.19;5106813;28;20405;-74
2023/02/05 00:40:28;;;;;;;3.97;2.92;;;;;;;-3.01;71.89;94871.31;5123600;28;20097;-74
2023/02/05 00:42:54;;;;;;;3.85;2.90;;;;;;;-3.08;71.91;94872.38;5091300;28;20035;-74
2023/02/05 00:45:19;;;;;;;4.20;2.85;;;;;;;-2.93;70.55;94880.38;5089955;28;20608;-74
2023/02/05 00:47:45;;;;;;;3.88;2.47;;;;;;;-3.05;70.25;94878.19;5089883;28;20029;-74
2023/02/05 00:50:10;;;;;;;3.88;2.55;;;;;;;-2.96;69.60;94877.09;5123697;28;20490;-73
2023/02/05 00:52:36;;;;;;;4.75;2.58;;;;;;;-2.92;69.51;94876.97;5089431;28;20483;-73
2023/02/05 00:55:01;;;;;;;4.75;2.67;;;;;;;-3.05;69.52;94854.50;5106434;28;20529;-73
2023/02/05 00:57:26;;;;;;;3.47;2.38;;;;;;;-2.87;69.18;94887.03;5093090;28;20032;-73
2023/02/05 00:59:52;;;;;;;4.38;2.83;;;;;;;-2.97;69.06;94865.28;5094375;28;20077;-73
2023/02/05 01:02:22;;;;;;;3.75;2.60;;;;;;;-2.93;68.70;94882.09;5109953;28;20059;-73
2023/02/05 01:04:49;;;;;;;6.32;2.70;;;;;;;-3.04;68.81;94873.94;5109417;28;20040;-73
2023/02/05 01:07:14;;;;;;;3.90;2.47;;;;;;;-2.97;69.68;94885.63;5109836;28;20039;-73
2023/02/05 01:09:40;;;;;;;4.55;2.75;;;;;;;-3.07;70.52;94895.19;5109922;28;20028;-73
2023/02/05 01:12:05;;;;;;;3.97;2.83;;;;;;;-3.07;70.16;94889.28;5094053;28;20028;-73
2023/02/05 01:14:31;;;;;;;3.80;2.33;;;;;;;-3.17;68.94;94874.31;5092653;28;20040;-73
2023/02/05 01:16:56;;;;;;;4.40;2.80;;;;;;;-3.02;69.48;94898.44;5109722;28;20031;-72
2023/02/05 01:19:22;;;;;;;4.25;2.35;;;;;;;-3.02;69.43;94902.69;5093739;28;20035;-73
2023/02/05 01:21:47;;;;;;;4.20;2.88;;;;;;;-3.07;70.19;94894.38;5093974;28;20077;-73
2023/02/05 01:24:13;;;;;;;5.40;2.70;;;;;;;-3.07;69.53;94896.91;5109518;28;20437;-73
2023/02/05 01:26:38;;;;;;;3.78;2.60;;;;;;;-3.07;70.10;94896.91;5075513;28;20414;-73
2023/02/05 01:29:03;;;;;;;4.32;2.65;;;;;;;-3.28;70.13;94876.31;5126594;27;20040;-73
2023/02/05 01:31:29;;;;;;;4.32;2.58;;;;;;;-3.23;70.83;94891.41;5136658;27;20043;-73
2023/02/05 01:33:54;;;;;;;3.55;2.70;;;;;;;-3.27;71.03;94895.75;5129830;27;20573;-74
2023/02/05 01:36:20;;;;;;;4.60;2.70;;;;;;;-3.22;71.35;94906.63;5129820;27;20035;-74
2023/02/05 01:38:45;;;;;;;6.13;3.38;;;;;;;-3.19;71.53;94880.31;5147007;27;20036;-73
2023/02/05 01:41:12;;;;;;;4.45;2.63;;;;;;;-3.20;70.66;94896.44;5113844;28;20073;-74
2023/02/05 01:43:37;;;;;;;4.30;2.97;;;;;;;-3.10;70.65;94904.63;5129821;27;20114;-74
2023/02/05 01:46:04;;;;;;;4.70;3.10;;;;;;;-3.22;70.65;94886.31;5113906;28;20394;-74
2023/02/05 01:48:34;;;;;;;5.90;3.40;;;;;;;-3.15;71.32;94909.84;5146700;27;20024;-73
2023/02/05 01:51:02;;;;;;;4.78;3.17;;;;;;;-3.10;69.59;94905.47;5112382;28;20024;-73
2023/02/05 01:53:30;;;;;;;4.35;3.03;;;;;;;-3.09;69.27;94913.91;5129079;27;20032;-73
2023/02/05 01:55:59;;;;;;;4.72;3.20;;;;;;;-3.15;69.34;94910.69;5129267;27;20217;-73
2023/02/05 01:58:25;;;;;;;4.05;3.30;;;;;;;-3.27;70.00;94898.31;5129430;27;20051;-74
2023/02/05 02:00:51;;;;;;;6.10;3.85;;;;;;;-3.29;70.51;94910.22;5129493;27;20505;-74
2023/02/05 02:03:16;;;;;;;4.97;3.53;;;;;;;-3.30;70.17;94913.63;5112066;28;20086;-74
2023/02/05 02:05:42;;;;;;;5.18;4.03;;;;;;;-3.22;70.60;94911.72;5146730;27;20081;-74
2023/02/05 02:08:09;;;;;;;4.78;3.13;;;;;;;-3.25;70.47;94921.16;5129064;27;20038;-74
2023/02/05 02:10:35;;;;;;;5.57;2.90;;;;;;;-3.31;69.42;94908.63;5111964;28;20027;-74
2023/02/05 02:13:00;;;;;;;5.35;3.25;;;;;;;-3.32;69.92;94920.47;5112072;28;20401;-74
2023/02/05 02:15:26;;;;;;;5.28;3.40;;;;;;;-3.25;69.57;94923.69;5112088;28;20031;-73
2023/02/05 02:18:24;;;;;;;4.80;2.70;;;;;;;-3.33;70.09;94908.66;5146408;27;20030;-74
2023/02/05 02:20:42;;;;;;;4.82;2.80;;;;;;;-3.43;69.62;94912.31;5111881;28;20067;-74
2023/02/05 02:23:32;;;;;;;4.40;2.83;;;;;;;-3.29;68.58;94933.09;5111696;28;20050;-74
2023/02/05 02:26:05;;;;;;;3.83;2.47;;;;;;;-3.42;69.88;94939.38;5128889;27;20073;-74
2023/02/05 02:28:34;;;;;;;4.25;2.78;;;;;;;-3.40;70.02;94935.06;5145718;27;20469;-74
2023/02/05 02:31:03;;;;;;;4.85;3.08;;;;;;;-3.41;69.54;94930.88;5105038;28;20172;-74
2023/02/05 02:33:31;;;;;;;5.40;3.13;;;;;;;-3.37;70.10;94927.41;5108021;28;20048;-74
2023/02/05 02:36:14;;;;;;;5.03;2.83;;;;;;;-3.44;69.61;94930.97;5125283;27;20024;-73
2023/02/05 02:38:42;;;;;;;4.55;2.65;;;;;;;-3.51;70.17;94926.91;5123545;27;20024;-73
2023/02/05 02:41:37;;;;;;;4.95;3.08;;;;;;;-3.50;69.92;94929.44;5090764;28;20032;-74
2023/02/05 02:44:13;;;;;;;5.78;3.85;;;;;;;-3.50;70.52;94942.13;5088991;28;20046;-74
2023/02/05 02:46:50;;;;;;;5.05;2.85;;;;;;;-3.49;70.05;94940.41;5107302;28;20032;-74
2023/02/05 02:49:19;;;;;;;4.80;3.05;;;;;;;-3.68;70.15;94948.50;5125084;27;20051;-74
2023/02/05 02:51:44;;;;;;;4.38;3.13;;;;;;;-3.81;70.58;94931.94;5090467;28;20032;-74
2023/02/05 02:54:13;;;;;;;4.82;3.08;;;;;;;-3.67;69.57;94944.28;5090947;28;20513;-74
2023/02/05 02:56:38;;;;;;;4.25;3.17;;;;;;;-3.83;70.70;94952.25;5090467;28;20503;-74
2023/02/05 02:59:12;;;;;;;4.20;3.00;;;;;;;-3.63;68.82;94946.69;5107669;28;20040;-73
2023/02/05 03:01:39;;;;;;;4.97;3.50;;;;;;;-3.55;68.18;94953.28;5090108;28;20035;-73
2023/02/05 03:04:13;;;;;;;4.55;3.05;;;;;;;-3.64;68.91;94934.88;5107629;28;20036;-74
2023/02/05 03:06:39;;;;;;;4.88;3.00;;;;;;;-3.73;69.11;94937.66;5124239;27;20047;-74
2023/02/05 03:09:31;;;;;;;4.32;3.25;;;;;;;-3.68;69.35;94953.56;5090680;28;20463;-73
2023/02/05 03:11:57;;;;;;;3.78;2.50;;;;;;;-3.68;68.69;94950.19;5091871;28;20028;-73
2023/02/05 03:14:23;;;;;;;7.95;3.33;;;;;;;-3.77;68.17;94933.50;5124232;27;20418;-74
2023/02/05 03:16:48;;;;;;;4.53;2.75;;;;;;;-3.61;67.43;94950.03;5090278;28;20114;-74
2023/02/05 03:19:14;;;;;;;4.82;2.83;;;;;;;-3.60;67.80;94951.66;5123836;27;20040;-73
2023/02/05 03:21:41;;;;;;;5.63;3.25;;;;;;;-3.81;68.55;94944.63;5124226;27;20028;-73
2023/02/05 03:24:07;;;;;;;5.80;2.50;;;;;;;-3.77;68.94;94948.75;5124108;27;20051;-73
2023/02/05 03:26:37;;;;;;;4.80;3.15;;;;;;;-4.00;70.06;94951.84;5090029;28;20028;-73
2023/02/05 03:29:05;;;;;;;5.20;3.08;;;;;;;-3.94;69.93;94958.47;5106556;28;20516;-73
2023/02/05 03:31:35;;;;;;;4.78;3.03;;;;;;;-3.85;69.72;94961.63;5117385;27;20063;-73
2023/02/05 03:34:11;;;;;;;6.30;2.78;;;;;;;-3.74;68.86;94961.34;5144478;27;20100;-73
2023/02/05 03:36:54;;;;;;;5.97;2.72;;;;;;;-3.97;70.10;94958.56;5144681;27;20023;-73
2023/02/05 03:39:44;;;;;;;4.60;2.92;;;;;;;-3.95;70.47;94972.88;5127597;27;20046;-73
2023/02/05 03:42:19;;;;;;;4.63;2.50;;;;;;;-3.92;69.95;94965.19;5111717;28;20473;-73
2023/02/05 03:45:01;;;;;;;6.82;3.15;;;;;;;-3.95;70.21;94969.50;5110142;28;20070;-73
2023/02/05 03:47:51;;;;;;;3.60;2.60;;;;;;;-3.89;69.95;94969.34;5127262;27;20028;-73
2023/02/05 03:50:27;;;;;;;4.53;2.67;;;;;;;-4.00;69.58;94951.84;5084573;28;20044;-73
2023/02/05 03:53:21;;;;;;;6.45;2.55;;;;;;;-4.14;70.22;94958.97;5110349;28;20495;-73
2023/02/05 03:55:53;;;;;;;4.93;2.88;;;;;;;-3.96;69.95;94977.97;5065876;28;20196;-73
2023/02/05 03:58:24;;;;;;;8.65;4.03;;;;;;;-4.08;70.21;94974.88;5127080;27;20429;-73
2023/02/05 04:00:50;;;;;;;5.68;3.10;;;;;;;-4.22;70.12;94954.06;5093063;28;20096;-73
2023/02/05 04:03:15;;;;;;;4.05;2.58;;;;;;;-4.05;69.26;94979.88;5126869;28;20051;-73
2023/02/05 04:05:41;;;;;;;4.35;2.80;;;;;;;-4.18;69.49;94967.50;5109979;28;20070;-73
2023/02/05 04:08:06;;;;;;;4.95;3.05;;;;;;;-4.10;69.65;94994.34;5127288;28;20031;-73
2023/02/05 04:10:32;;;;;;;3.30;2.65;;;;;;;-4.02;69.91;94978.13;5111361;28;20032;-73
2023/02/05 04:12:57;;;;;;;5.90;3.83;;;;;;;-3.97;70.40;94991.56;5127134;28;20081;-73
2023/02/05 04:15:23;;;;;;;4.55;2.97;;;;;;;-4.05;69.78;94984.13;5111341;28;20031;-73
2023/02/05 04:17:48;;;;;;;4.18;2.95;;;;;;;-4.00;70.41;94986.56;5109739;28;20032;-73
2023/02/05 04:20:14;;;;;;;4.35;2.97;;;;;;;-4.05;69.65;94986.66;5127076;28;20469;-73
2023/02/05 04:22:39;;;;;;;3.97;2.63;;;;;;;-3.92;69.60;94988.03;5109916;28;20028;-73
2023/02/05 04:25:05;;;;;;;4.20;2.88;;;;;;;-4.06;69.97;94993.44;5109810;28;20532;-73
2023/02/05 04:27:31;;;;;;;4.35;2.95;;;;;;;-4.16;70.37;94997.03;5111358;28;20114;-73
2023/02/05 04:29:56;;;;;;;4.18;3.08;;;;;;;-4.20;70.74;94987.03;5145843;27;20036;-73
2023/02/05 04:32:21;;;;;;;6.30;3.60;;;;;;;-4.22;71.53;94999.72;5112966;27;20065;-73
2023/02/05 04:34:47;;;;;;;3.47;2.75;;;;;;;-4.29;71.14;95000.72;5094685;28;20135;-73
2023/02/05 04:37:12;;;;;;;4.22;2.20;;;;;;;-4.26;70.12;95013.38;5093384;28;20027;-73
2023/02/05 04:39:38;;;;;;;4.85;2.90;;;;;;;-4.41;70.37;94990.84;5093434;28;20097;-73
2023/02/05 04:42:03;;;;;;;4.03;2.78;;;;;;;-4.47;71.20;95013.81;5093364;28;20024;-72
2023/02/05 04:44:29;;;;;;;3.83;2.83;;;;;;;-4.51;71.73;95003.75;5110366;28;20036;-73
2023/02/05 04:46:54;;;;;;;6.13;2.65;;;;;;;-4.50;71.98;95015.53;5110263;28;20024;-74
2023/02/05 04:49:20;;;;;;;3.85;2.70;;;;;;;-4.46;72.27;95011.25;5093193;28;20390;-73
2023/02/05 04:51:45;;;;;;;4.20;2.67;;;;;;;-4.55;72.62;95027.47;5110122;28;20032;-73
2023/02/05 04:54:11;;;;;;;4.60;2.63;;;;;;;-4.58;72.30;95017.41;5093041;28;20047;-73
2023/02/05 04:56:37;;;;;;;4.60;2.97;;;;;;;-4.47;71.91;95016.34;5092860;28;20024;-73
2023/02/05 04:59:03;;;;;;;6.80;2.88;;;;;;;-4.46;72.75;95020.56;5093037;28;20039;-74
2023/02/05 05:01:28;;;;;;;6.32;3.40;;;;;;;-4.48;72.27;95023.13;5126990;27;20020;-73
2023/02/05 05:03:54;;;;;;;6.10;3.47;;;;;;;-4.58;71.71;94992.06;5092801;28;20048;-73
2023/02/05 05:06:19;;;;;;;5.40;2.72;;;;;;;-4.32;70.62;95028.69;5094054;28;20024;-73
2023/02/05 05:08:45;;;;;;;5.28;3.13;;;;;;;-4.47;71.54;95021.44;5093030;28;20059;-74
2023/02/05 05:11:12;;;;;;;5.07;3.20;;;;;;;-4.57;72.49;95039.38;5126843;27;20099;-73
2023/02/05 05:13:38;;;;;;;5.07;3.00;;;;;;;-4.59;71.63;95010.69;5109469;28;20467;-74
2023/02/05 05:16:04;;;;;;;12.32;4.95;;;;;;;-4.55;72.29;95029.19;5092555;28;20020;-73
2023/02/05 05:18:29;;;;;;;7.15;3.85;;;;;;;-4.51;71.83;95030.81;5094035;28;20043;-73
2023/02/05 05:20:55;;;;;;;5.00;3.50;;;;;;;-4.48;71.69;95030.75;5109642;28;20040;-74
2023/02/05 05:23:20;;;;;;;5.10;3.30;;;;;;;-4.46;71.34;95039.13;5126755;27;20684;-74
2023/02/05 05:25:46;;;;;;;6.47;3.10;;;;;;;-4.46;71.62;95044.22;5092481;28;20494;-74
2023/02/05 05:28:12;;;;;;;4.63;2.72;;;;;;;-4.56;71.42;95038.50;5109464;28;20024;-73
2023/02/05 05:30:38;;;;;;;3.95;2.67;;;;;;;-4.70;71.69;95030.34;5112374;28;20063;-73
2023/02/05 05:33:03;;;;;;;4.13;3.22;;;;;;;-4.52;71.78;95050.25;5129741;27;20504;-73
2023/02/05 05:35:29;;;;;;;4.22;2.90;;;;;;;-4.57;70.83;95043.59;5129771;27;20036;-73
2023/02/05 05:37:58;;;;;;;4.95;2.53;;;;;;;-4.57;71.45;95049.53;5147023;27;20023;-73
2023/02/05 05:45:55;;;;;;;5.22;2.97;;;;;;;-4.62;71.60;95069.06;5127131;27;20042;-73
2023/02/05 05:48:20;;;;;;;6.22;3.55;;;;;;;-4.51;71.06;95072.22;5146676;27;20031;-72
2023/02/05 05:50:46;;;;;;;6.05;2.75;;;;;;;-4.53;70.25;95073.13;5113645;28;20084;-72
2023/02/05 05:53:12;;;;;;;6.15;2.92;;;;;;;-4.61;71.46;95085.94;5112386;28;20039;-73
2023/02/05 05:55:37;;;;;;;4.97;3.35;;;;;;;-4.38;69.66;95082.09;5129302;27;20067;-73
2023/02/05 05:58:02;;;;;;;4.60;2.80;;;;;;;-4.57;70.26;95067.28;5112356;28;20024;-73
2023/02/05 06:00:28;;;;;;;5.80;3.65;;;;;;;-4.46;70.49;95091.56;5095172;28;20032;-73
2023/02/05 06:02:53;;;;;;;6.65;3.78;;;;;;;-4.48;70.49;95081.47;5113323;28;20058;-72
2023/02/05 06:05:19;;;;;;;9.48;4.38;;;;;;;-4.43;69.79;95086.44;5146311;27;20107;-73
2023/02/05 06:07:44;;;;;;;7.20;4.13;;;;;;;-4.60;70.63;95080.00;5113540;28;20514;-73
2023/02/05 06:10:10;;;;;;;6.57;3.38;;;;;;;-4.47;69.45;95062.84;5112067;28;20474;-73
2023/02/05 06:12:35;;;;;;;6.07;3.92;;;;;;;-4.35;69.87;95090.47;5111858;28;20030;-73
2023/02/05 06:15:00;;;;;;;5.88;4.03;;;;;;;-4.35;69.87;95076.97;5111889;28;20032;-72
2023/02/05 06:17:26;;;;;;;5.90;3.72;;;;;;;-4.42;70.00;95090.66;5077177;28;20027;-72
2023/02/05 06:19:52;;;;;;;7.85;3.40;;;;;;;-4.42;70.26;95098.25;5101028;27;20039;-72
2023/02/05 06:22:17;;;;;;;4.78;3.03;;;;;;;-4.44;70.34;95102.53;5106710;28;20269;-72
2023/02/05 06:24:46;;;;;;;6.25;3.28;;;;;;;-4.46;70.51;95120.28;5109289;28;20028;-73
2023/02/05 06:27:14;;;;;;;4.25;2.83;;;;;;;-4.49;69.70;95100.06;5107687;28;20062;-75
2023/02/05 06:29:39;;;;;;;6.10;3.83;;;;;;;-4.46;70.43;95124.53;5088783;28;20055;-72
2023/02/05 06:32:05;;;;;;;4.97;3.22;;;;;;;-4.30;70.13;95125.91;5108118;28;20104;-73
2023/02/05 06:34:30;;;;;;;7.97;3.97;;;;;;;-4.31;69.56;95126.78;5090938;28;20035;-72
2023/02/05 06:36:56;;;;;;;10.13;5.80;;;;;;;-4.38;69.66;95118.44;5091013;28;20077;-71
2023/02/05 06:39:21;;;;;;;10.75;6.15;;;;;;;-4.56;71.24;95137.41;5104847;27;20046;-72
2023/02/05 06:41:47;;;;;;;11.82;5.50;;;;;;;-4.49;70.58;95125.44;5090453;28;20024;-72
2023/02/05 06:44:12;;;;;;;15.00;7.75;;;;;;;-4.36;69.91;95133.66;5106334;28;20027;-72
2023/02/05 06:46:38;;;;;;;10.45;5.75;;;;;;;-4.52;71.10;95140.72;5089623;28;20044;-72
2023/02/05 06:49:03;;;;;;;13.10;7.28;;;;;;;-4.75;71.53;95119.16;5105340;28;20031;-72
2023/02/05 06:51:29;;;;;;;10.20;6.38;;;;;;;-4.51;70.88;95132.25;5106778;28;20486;-72
2023/02/05 06:53:56;;;;;;;12.43;7.68;;;;;;;-4.51;70.47;95122.94;5121890;27;20413;-73
2023/02/05 06:56:22;;;;;;;9.05;4.47;;;;;;;-4.22;69.91;95146.06;5092825;28;20069;-73
2023/02/05 06:58:48;;;;;;;12.20;6.88;;;;;;;-4.11;69.68;95157.66;5108704;28;20525;-71
2023/02/05 07:01:13;;;;;;;10.18;5.72;;;;;;;-4.35;69.50;95120.91;5108907;28;20020;-73
2023/02/05 07:03:39;;;;;;;9.52;6.15;;;;;;;-4.22;70.31;95148.59;5110074;28;20490;-73
2023/02/05 07:06:04;;;;;;;15.63;6.50;;;;;;;-4.14;69.63;95146.75;5108256;28;20035;-73
2023/02/05 07:08:30;;;;;;;21.60;8.57;;;;;;;-4.28;70.18;95149.56;5108998;28;20077;-74
2023/02/05 07:10:56;;;;;;;13.20;7.85;;;;;;;-4.44;70.55;95153.25;5092383;28;20404;-74
2023/02/05 07:13:21;;;;;;;15.68;8.93;;;;;;;-4.17;69.26;95162.03;5111782;28;20027;-73
2023/02/05 07:15:47;;;;;;;14.90;8.27;;;;;;;-4.17;70.15;95162.84;5093052;28;20416;-73
2023/02/05 07:18:13;;;;;;;24.58;14.23;;;;;;;-4.16;69.63;95167.06;5110812;28;20051;-73
2023/02/05 07:20:38;;;;;;;8.88;5.63;;;;;;;-4.12;69.48;95172.94;5110206;28;20047;-73
2023/02/05 07:23:04;;;;;;;11.65;6.55;;;;;;;-4.20;69.76;95162.09;5110874;28;20035;-74
2023/02/05 07:25:34;;;;;;;10.63;6.40;;;;;;;-4.33;69.61;95157.25;5092354;27;20097;-74
2023/02/05 07:28:01;;;;;;;9.32;4.72;;;;;;;-4.15;69.11;95166.22;5094135;28;20023;-73
2023/02/05 07:30:26;;;;;;;8.98;5.53;;;;;;;-4.14;69.63;95172.13;5113263;27;20024;-73
2023/02/05 07:32:52;;;;;;;14.05;6.85;;;;;;;-4.10;68.75;95171.16;5096820;27;20442;-74
2023/02/05 07:35:17;;;;;;;12.65;7.60;;;;;;;-4.23;68.83;95155.38;5103131;27;20043;-74
2023/02/05 07:37:43;;;;;;;13.48;6.93;;;;;;;-4.17;68.81;95152.72;5108142;27;20032;-74
2023/02/05 07:40:08;;;;;;;10.93;4.95;;;;;;;-3.97;68.54;95182.75;5090591;28;20126;-73
2023/02/05 07:42:34;;;;;;;37.50;19.80;;;;;;;-4.03;69.38;95179.50;5092435;28;20055;-73
2023/02/05 07:44:59;;;;;;;8.65;5.03;;;;;;;-3.90;68.77;95188.53;5091966;28;20036;-73
2023/02/05 07:47:25;;;;;;;17.65;11.88;;;;;;;-4.23;70.79;95180.75;5110959;28;20027;-78
2023/02/05 07:49:50;;;;;;;10.07;4.97;;;;;;;-3.97;69.45;95197.97;5093058;28;20035;-74
2023/02/05 07:52:16;;;;;;;14.13;8.35;;;;;;;-4.10;70.11;95169.47;5110245;28;20031;-78
2023/02/05 07:54:42;;;;;;;13.93;6.65;;;;;;;-3.84;70.16;95206.19;5108202;28;20413;-76
2023/02/05 07:57:07;;;;;;;8.52;5.45;;;;;;;-3.98;69.42;95154.84;5110109;28;20107;-73
2023/02/05 07:59:33;;;;;;;9.55;5.55;;;;;;;-3.67;69.41;95203.31;5108954;28;20043;-73
2023/02/05 08:01:58;;;;;;;18.85;11.98;;;;;;;-3.69;70.15;95197.41;5109305;28;20096;-73
2023/02/05 08:04:23;;;;;;;14.25;8.70;;;;;;;-3.84;70.58;95206.19;5109048;28;20504;-74
2023/02/05 08:06:49;;;;;;;12.02;7.18;;;;;;;-3.63;69.35;95185.41;5075568;28;20035;-73
2023/02/05 08:09:15;;;;;;;14.40;9.02;;;;;;;-3.54;70.14;95193.69;5092518;28;20135;-73
2023/02/05 08:11:41;;;;;;;11.88;6.85;;;;;;;-3.44;68.82;95198.53;5093509;28;20454;-72
2023/02/05 08:14:06;;;;;;;19.50;10.20;;;;;;;-3.46;69.59;95215.50;5088646;28;20075;-73
2023/02/05 08:16:32;;;;;;;70.10;27.50;;;;;;;-3.33;69.93;95215.25;5101556;28;20028;-72
2023/02/05 08:18:57;;;;;;;17.85;12.63;;;;;;;-3.24;69.46;95200.63;5109501;28;20043;-72
2023/02/05 08:21:23;;;;;;;11.52;7.15;;;;;;;-3.27;70.25;95223.56;5092302;28;20031;-71
2023/02/05 08:23:49;;;;;;;7.07;5.38;;;;;;;-3.42;68.89;95168.84;5086624;28;20514;-72
2023/02/05 08:26:14;;;;;;;9.88;6.55;;;;;;;-3.24;69.96;95203.16;5078721;28;20030;-72
2023/02/05 08:28:40;;;;;;;14.07;9.30;;;;;;;-3.13;68.95;95215.63;5106178;28;20053;-72
2023/02/05 08:31:13;;;;;;;10.27;5.78;;;;;;;-3.01;69.01;95227.22;5072200;28;20032;-72
2023/02/05 08:33:38;;;;;;;12.00;7.93;;;;;;;-2.86;67.99;95221.78;5089373;28;20096;-72
2023/02/05 08:36:04;;;;;;;29.48;14.60;;;;;;;-3.02;68.73;95231.47;5109038;28;20103;-71
2023/02/05 08:38:30;;;;;;;15.30;8.10;;;;;;;-2.98;68.85;95239.84;5097359;28;20031;-73
2023/02/05 08:40:56;;;;;;;19.15;9.68;;;;;;;-2.92;69.01;95232.09;5113277;28;20035;-71
2023/02/05 08:43:22;;;;;;;11.20;6.40;;;;;;;-2.89;67.74;95238.81;5119292;27;20015;-74
2023/02/05 08:45:48;;;;;;;7.22;5.10;;;;;;;-3.07;67.54;95212.94;5108849;28;20051;-74
2023/02/05 08:48:13;;;;;;;18.40;10.82;;;;;;;-3.07;67.94;95229.91;5091659;28;20031;-75
2023/02/05 08:50:39;;;;;;;9.43;4.90;;;;;;;-2.84;66.96;95236.97;5126301;28;20048;-72
2023/02/05 08:53:05;;;;;;;10.38;7.30;;;;;;;-2.86;67.59;95244.66;5071021;28;20088;-72
2023/02/05 08:55:32;;;;;;;16.20;11.60;;;;;;;-2.63;66.20;95241.56;5088486;28;20363;-72
2023/02/05 08:57:57;;;;;;;11.63;8.00;;;;;;;-2.61;64.76;95238.97;5108142;28;20032;-72
2023/02/05 09:00:23;;;;;;;13.73;9.18;;;;;;;-2.49;63.23;95238.66;5074435;28;20097;-73
2023/02/05 09:02:48;;;;;;;9.05;4.05;;;;;;;-2.70;61.87;95232.41;5108329;28;20043;-73
2023/02/05 09:05:14;;;;;;;6.85;5.13;;;;;;;-2.41;60.56;95241.84;5100765;28;20056;-73
2023/02/05 09:07:39;;;;;;;12.20;7.53;;;;;;;-2.28;60.29;95237.28;5087222;28;20085;-73
2023/02/05 09:10:07;;;;;;;11.57;7.93;;;;;;;-2.18;60.50;95245.50;5108783;28;20023;-73
2023/02/05 09:12:32;;;;;;;5.75;4.45;;;;;;;-2.18;61.46;95258.22;5109842;28;20137;-73
2023/02/05 09:14:58;;;;;;;7.05;5.15;;;;;;;-2.46;61.21;95248.75;5075508;28;20139;-73
2023/02/05 09:17:23;;;;;;;10.02;6.00;;;;;;;-2.36;59.87;95260.38;5124808;27;20085;-73
2023/02/05 09:19:49;;;;;;;9.70;6.35;;;;;;;-2.29;60.25;95264.44;5112395;28;20046;-73
2023/02/05 09:22:14;;;;;;;7.82;4.53;;;;;;;-2.39;59.40;95259.63;5111329;28;20023;-72
2023/02/05 09:24:39;;;;;;;7.50;5.20;;;;;;;-2.41;59.78;95235.94;5109420;28;20032;-71
2023/02/05 09:27:05;;;;;;;9.10;5.63;;;;;;;-2.33;58.67;95256.94;5109927;27;20031;-72
2023/02/05 09:29:30;;;;;;;11.93;6.85;;;;;;;-2.35;58.52;95259.50;5093371;28;20024;-72
2023/02/05 09:31:56;;;;;;;19.20;8.20;;;;;;;-2.25;59.16;95271.13;5105388;28;20042;-71
2023/02/05 09:34:21;;;;;;;12.88;7.72;;;;;;;-2.02;61.04;95267.16;5100730;28;20648;-70
2023/02/05 09:36:47;;;;;;;9.02;5.18;;;;;;;-2.02;57.92;95277.31;5113289;28;20028;-70
2023/02/05 09:39:12;;;;;;;10.00;5.85;;;;;;;-1.98;58.14;95266.16;5111781;28;20028;-71
2023/02/05 09:41:47;;;;;;;12.05;6.07;;;;;;;-1.86;57.48;95267.56;5088484;28;20032;-70
2023/02/05 09:44:19;;;;;;;14.07;7.80;;;;;;;-1.94;57.02;95257.59;5108952;28;20404;-69
2023/02/05 09:47:20;;;;;;;8.30;5.20;;;;;;;-1.74;55.45;95279.13;5112484;28;20030;-69
2023/02/05 09:50:15;;;;;;;6.32;4.22;;;;;;;-1.89;58.92;95285.50;5094634;28;20639;-72
2023/02/05 09:52:46;;;;;;;10.93;5.38;;;;;;;-2.09;56.34;95251.22;5091409;28;20043;-71
2023/02/05 09:55:44;;;;;;;8.68;5.28;;;;;;;-1.78;55.59;95274.97;5075640;28;20539;-76
2023/02/05 09:58:18;;;;;;;5.95;3.63;;;;;;;-1.71;57.74;95271.41;5067962;28;20043;-73
2023/02/05 10:01:16;;;;;;;7.65;4.28;;;;;;;-1.71;55.10;95273.94;5106847;28;20066;-72
2023/02/05 10:03:43;;;;;;;9.07;3.90;;;;;;;-1.82;55.08;95252.16;5092587;27;20420;-71
2023/02/05 10:06:08;;;;;;;7.10;4.20;;;;;;;-1.57;54.64;95282.88;5087951;28;20044;-71
2023/02/05 10:08:41;;;;;;;7.55;3.90;;;;;;;-1.70;54.54;95273.91;5091468;28;20415;-72
2023/02/05 10:11:14;;;;;;;4.43;3.03;;;;;;;-1.64;53.94;95278.00;5101767;28;20509;-72
2023/02/05 10:13:42;;;;;;;11.15;6.32;;;;;;;-1.61;54.46;95277.91;5092456;28;20138;-72
2023/02/05 10:16:28;;;;;;;8.98;4.93;;;;;;;-1.65;55.82;95278.88;5089718;28;20031;-73
2023/02/05 10:19:02;;;;;;;15.35;8.80;;;;;;;-1.60;55.76;95277.03;5100870;28;20425;-72
2023/02/05 10:21:40;;;;;;;8.32;5.20;;;;;;;-1.54;54.14;95276.84;5083543;28;20024;-73
2023/02/05 10:24:43;;;;;;;11.75;6.05;;;;;;;-1.81;54.85;95281.03;5105989;28;20031;-73
2023/02/05 10:27:22;;;;;;;13.73;8.02;;;;;;;-1.65;55.67;95289.06;5103899;28;20078;-72
2023/02/05 10:30:00;;;;;;;6.47;4.53;;;;;;;-2.00;54.20;95288.31;5108772;28;20096;-74
2023/02/05 10:32:58;;;;;;;6.53;4.18;;;;;;;-1.94;54.03;95283.06;5135855;27;20036;-75
2023/02/05 10:35:43;;;;;;;10.63;5.20;;;;;;;-2.26;55.89;95301.69;5110780;27;20059;-74
2023/02/05 10:38:22;;;;;;;8.02;4.63;;;;;;;-1.96;55.86;95304.34;5086129;28;20027;-74
2023/02/05 10:40:47;;;;;;;10.98;5.38;;;;;;;-2.04;54.79;95289.25;5077638;28;20058;-73
2023/02/05 10:43:49;;;;;;;12.95;6.57;;;;;;;-2.00;56.16;95280.69;5107742;28;20375;-73
2023/02/05 10:46:15;;;;;;;10.80;6.68;;;;;;;-1.94;55.72;95292.41;5056040;28;20047;-72
2023/02/05 10:48:41;;;;;;;5.53;3.50;;;;;;;-2.03;55.71;95303.69;5122783;27;20028;-71
2023/02/05 10:51:37;;;;;;;5.43;2.97;;;;;;;-2.39;54.24;95269.81;5108911;28;20016;-72
2023/02/05 10:54:03;;;;;;;6.20;3.28;;;;;;;-2.17;53.66;95291.31;5102432;28;20054;-72
2023/02/05 10:56:29;;;;;;;10.90;5.60;;;;;;;-2.29;55.01;95289.06;5109787;28;20436;-73
2023/02/05 10:58:55;;;;;;;13.88;9.18;;;;;;;-2.44;54.96;95289.44;5081987;28;20040;-72
2023/02/05 11:01:27;;;;;;;11.40;5.65;;;;;;;-2.47;54.93;95282.72;5105592;28;20044;-74
2023/02/05 11:03:57;;;;;;;10.50;6.40;;;;;;;-2.35;56.33;95297.69;5119415;27;20552;-74
2023/02/05 11:06:24;;;;;;;8.13;5.78;;;;;;;-2.48;55.53;95294.63;5110278;28;20031;-73
2023/02/05 11:08:49;;;;;;;11.00;4.63;;;;;;;-2.57;56.06;95281.28;5097956;28;20047;-73
2023/02/05 11:11:23;;;;;;;7.25;4.80;;;;;;;-2.46;55.31;95307.28;5100862;28;20042;-73
2023/02/05 11:14:00;;;;;;;5.25;3.22;;;;;;;-2.67;54.60;95265.41;5090161;28;20032;-74
2023/02/05 11:16:44;;;;;;;12.35;7.65;;;;;;;-2.56;54.50;95314.31;5093517;28;20489;-73
2023/02/05 11:19:23;;;;;;;12.70;7.10;;;;;;;-2.74;55.59;95294.38;5091064;28;20430;-74
2023/02/05 11:21:54;;;;;;;21.98;12.55;;;;;;;-2.50;55.82;95298.91;5091776;28;20114;-74
2023/02/05 11:24:39;;;;;;;11.93;6.30;;;;;;;-2.30;56.40;95303.50;5093952;28;20035;-74
2023/02/05 11:27:31;;;;;;;9.43;4.55;;;;;;;-2.33;54.21;95313.75;5109164;28;20118;-74
2023/02/05 11:29:59;;;;;;;7.10;4.60;;;;;;;-2.38;54.00;95274.03;5109088;28;20450;-74
2023/02/05 11:32:35;;;;;;;20.35;7.68;;;;;;;-2.27;53.47;95300.03;5090352;28;20024;-74
2023/02/05 11:35:18;;;;;;;12.48;6.13;;;;;;;-2.44;53.42;95303.00;5090833;28;20038;-75
2023/02/05 11:37:43;;;;;;;17.60;10.80;;;;;;;-2.28;54.73;95301.75;5107634;28;20110;-74
2023/02/05 11:40:24;;;;;;;26.00;11.18;;;;;;;-2.50;53.32;95306.53;5072595;28;20480;-74
2023/02/05 11:43:01;;;;;;;16.08;8.95;;;;;;;-2.32;52.61;95302.69;5118981;27;20057;-74
2023/02/05 11:45:27;;;;;;;13.85;7.68;;;;;;;-2.33;52.81;95302.75;5105787;28;20027;-74